createdAt,value
2023-05-04T00:00:51.963Z,507.00
2023-05-04T00:01:52.030Z,515.00
2023-05-04T00:02:52.163Z,522.00
2023-05-04T00:03:52.313Z,523.00
2023-05-04T00:04:52.262Z,513.00
2023-05-04T00:05:52.134Z,512.00
2023-05-04T00:06:52.183Z,505.00
2023-05-04T00:07:52.195Z,505.00
2023-05-04T00:08:52.246Z,509.00
2023-05-04T00:09:52.310Z,510.00
2023-05-04T00:10:52.307Z,513.00
2023-05-04T00:11:52.358Z,514.00
2023-05-04T00:12:52.451Z,505.00
2023-05-04T00:13:52.412Z,507.00
2023-05-04T00:14:52.456Z,506.00
2023-05-04T00:15:52.531Z,504.00
2023-05-04T00:16:52.541Z,520.00
2023-05-04T00:17:52.558Z,509.00
2023-05-04T00:18:52.589Z,507.00
2023-05-04T00:19:52.589Z,513.00
2023-05-04T00:20:52.638Z,520.00
2023-05-04T00:21:52.685Z,520.00
2023-05-04T00:22:52.690Z,529.00
2023-05-04T00:23:52.700Z,526.00
2023-05-04T00:24:52.726Z,527.00
2023-05-04T00:25:52.769Z,527.00
2023-05-04T00:26:52.791Z,529.00
2023-05-04T00:27:52.820Z,539.00
2023-05-04T00:28:52.863Z,537.00
2023-05-04T00:29:52.881Z,536.00
2023-05-04T00:30:52.902Z,533.00
2023-05-04T00:31:53.010Z,540.00
2023-05-04T00:32:53.043Z,535.00
2023-05-04T00:33:53.009Z,542.00
2023-05-04T00:34:53.115Z,547.00
2023-05-04T00:35:53.158Z,555.00
2023-05-04T00:36:53.246Z,549.00
2023-05-04T00:37:53.292Z,559.00
2023-05-04T00:38:53.335Z,551.00
2023-05-04T00:39:53.410Z,555.00
2023-05-04T00:40:53.439Z,559.00
2023-05-04T00:41:53.550Z,560.00
2023-05-04T00:42:53.599Z,566.00
2023-05-04T00:43:53.665Z,572.00
2023-05-04T00:44:53.745Z,572.00
2023-05-04T00:45:53.761Z,566.00
2023-05-04T00:46:53.931Z,576.00
2023-05-04T00:47:53.971Z,574.00
2023-05-04T00:48:53.983Z,570.00
2023-05-04T00:49:54.108Z,572.00
2023-05-04T00:50:54.120Z,569.00
2023-05-04T00:51:54.186Z,571.00
2023-05-04T00:52:54.234Z,574.00
2023-05-04T00:53:54.277Z,570.00
2023-05-04T00:54:54.381Z,572.00
2023-05-04T00:55:54.410Z,566.00
2023-05-04T00:56:54.553Z,570.00
2023-05-04T00:57:54.550Z,567.00
2023-05-04T00:58:54.692Z,571.00
2023-05-04T00:59:54.682Z,577.00
2023-05-04T01:00:54.807Z,568.00
2023-05-04T01:01:54.831Z,558.00
2023-05-04T01:02:54.967Z,557.00
2023-05-04T01:03:55.014Z,549.00
2023-05-04T01:04:54.977Z,556.00
2023-05-04T01:05:55.082Z,544.00
2023-05-04T01:06:55.171Z,546.00
2023-05-04T01:07:55.230Z,534.00
2023-05-04T01:08:55.316Z,529.00
2023-05-04T01:09:55.362Z,519.00
2023-05-04T01:10:55.419Z,530.00
2023-05-04T01:11:55.547Z,526.00
2023-05-04T01:12:55.635Z,521.00
2023-05-04T01:13:55.655Z,523.00
2023-05-04T01:14:55.727Z,530.00
2023-05-04T01:15:55.805Z,531.00
2023-05-04T01:16:55.981Z,531.00
2023-05-04T01:17:55.980Z,523.00
2023-05-04T01:18:56.027Z,513.00
2023-05-04T01:19:56.102Z,513.00
2023-05-04T01:20:56.173Z,519.00
2023-05-04T01:21:56.267Z,511.00
2023-05-04T01:22:56.329Z,511.00
2023-05-04T01:23:56.531Z,515.00
2023-05-04T01:24:56.486Z,509.00
2023-05-04T01:25:56.519Z,512.00
2023-05-04T01:26:56.649Z,503.00
2023-05-04T01:27:56.661Z,513.00
2023-05-04T01:28:56.780Z,508.00
2023-05-04T01:29:56.845Z,515.00
2023-05-04T01:30:56.968Z,515.00
2023-05-04T01:31:57.015Z,507.00
2023-05-04T01:32:57.075Z,509.00
2023-05-04T01:33:57.167Z,514.00
2023-05-04T01:34:57.239Z,512.00
2023-05-04T01:35:57.311Z,510.00
2023-05-04T01:36:57.400Z,513.00
2023-05-04T01:37:57.498Z,515.00
2023-05-04T01:38:57.561Z,509.00
2023-05-04T01:39:57.618Z,506.00
2023-05-04T01:40:57.717Z,505.00
2023-05-04T01:41:57.780Z,511.00
2023-05-04T01:42:57.864Z,512.00
2023-05-04T01:43:57.932Z,507.00
2023-05-04T01:44:58.012Z,500.00
2023-05-04T01:45:58.138Z,511.00
2023-05-04T01:46:58.186Z,519.00
2023-05-04T01:47:58.307Z,517.00
2023-05-04T01:48:58.338Z,521.00
2023-05-04T01:49:58.430Z,518.00
2023-05-04T01:50:58.489Z,517.00
2023-05-04T01:51:58.601Z,509.00
2023-05-04T01:52:58.706Z,507.00
2023-05-04T01:53:58.771Z,517.00
2023-05-04T01:54:58.833Z,513.00
2023-05-04T01:55:58.935Z,508.00
2023-05-04T01:56:59.035Z,512.00
2023-05-04T01:57:59.115Z,508.00
2023-05-04T01:58:59.195Z,508.00
2023-05-04T01:59:59.274Z,515.00
2023-05-04T02:00:59.376Z,516.00
2023-05-04T02:01:59.488Z,520.00
2023-05-04T02:02:59.603Z,515.00
2023-05-04T02:03:59.856Z,526.00
2023-05-04T02:04:59.704Z,524.00
2023-05-04T02:05:59.787Z,528.00
2023-05-04T02:06:59.899Z,528.00
2023-05-04T02:07:59.960Z,531.00
2023-05-04T02:09:00.134Z,532.00
2023-05-04T02:10:00.164Z,532.00
2023-05-04T02:11:00.236Z,532.00
2023-05-04T02:12:00.311Z,537.00
2023-05-04T02:13:00.442Z,528.00
2023-05-04T02:14:00.497Z,526.00
2023-05-04T02:15:00.596Z,528.00
2023-05-04T02:16:00.717Z,526.00
2023-05-04T02:17:00.766Z,526.00
2023-05-04T02:18:00.889Z,527.00
2023-05-04T02:19:00.953Z,526.00
2023-05-04T02:20:01.042Z,528.00
2023-05-04T02:21:01.157Z,535.00
2023-05-04T02:22:01.235Z,533.00
2023-05-04T02:23:01.300Z,535.00
2023-05-04T02:24:01.435Z,528.00
2023-05-04T02:25:01.485Z,538.00
2023-05-04T02:26:01.619Z,555.00
2023-05-04T02:27:01.712Z,558.00
2023-05-04T02:28:01.792Z,562.00
2023-05-04T02:29:01.887Z,560.00
2023-05-04T02:30:01.997Z,560.00
2023-05-04T02:31:02.084Z,562.00
2023-05-04T02:32:02.296Z,559.00
2023-05-04T02:33:02.388Z,560.00
2023-05-04T02:34:02.376Z,567.00
2023-05-04T02:35:02.487Z,574.00
2023-05-04T02:36:02.564Z,577.00
2023-05-04T02:37:03.061Z,576.00
2023-05-04T02:38:02.758Z,579.00
2023-05-04T02:39:02.840Z,579.00
2023-05-04T02:40:03.112Z,582.00
2023-05-04T02:41:03.028Z,578.00
2023-05-04T02:42:03.134Z,576.00
2023-05-04T02:43:03.274Z,578.00
2023-05-04T02:44:03.322Z,581.00
2023-05-04T02:45:03.457Z,590.00
2023-05-04T02:46:03.615Z,593.00
2023-05-04T02:47:03.648Z,597.00
2023-05-04T02:48:03.805Z,598.00
2023-05-04T02:49:03.834Z,601.00
2023-05-04T02:50:04.170Z,600.00
2023-05-04T02:51:04.056Z,606.00
2023-05-04T02:52:04.142Z,609.00
2023-05-04T02:53:04.260Z,616.00
2023-05-04T02:54:04.325Z,622.00
2023-05-04T02:55:04.437Z,620.00
2023-05-04T02:56:04.539Z,628.00
2023-05-04T02:57:04.651Z,629.00
2023-05-04T02:58:04.741Z,629.00
2023-05-04T02:59:04.901Z,634.00
2023-05-04T03:00:05.263Z,640.00
2023-05-04T03:01:05.068Z,634.00
2023-05-04T03:02:05.148Z,644.00
2023-05-04T03:03:05.286Z,644.00
2023-05-04T03:04:05.384Z,646.00
2023-05-04T03:05:05.419Z,646.00
2023-05-04T03:06:05.528Z,647.00
2023-05-04T03:07:05.654Z,649.00
2023-05-04T03:08:05.746Z,651.00
2023-05-04T03:09:05.866Z,657.00
2023-05-04T03:10:06.067Z,662.00
2023-05-04T03:11:06.069Z,665.00
2023-05-04T03:12:06.164Z,664.00
2023-05-04T03:13:06.351Z,680.00
2023-05-04T03:14:06.460Z,676.00
2023-05-04T03:15:06.482Z,675.00
2023-05-04T03:16:06.612Z,673.00
2023-05-04T03:17:06.740Z,669.00
2023-05-04T03:18:06.866Z,668.00
2023-05-04T03:19:06.904Z,677.00
2023-05-04T03:20:07.225Z,675.00
2023-05-04T03:21:07.115Z,668.00
2023-05-04T03:22:07.216Z,672.00
2023-05-04T03:23:07.326Z,678.00
2023-05-04T03:24:07.460Z,684.00
2023-05-04T03:25:07.550Z,676.00
2023-05-04T03:26:07.642Z,681.00
2023-05-04T03:27:07.773Z,680.00
2023-05-04T03:28:07.876Z,682.00
2023-05-04T03:29:08.002Z,695.00
2023-05-04T03:30:08.112Z,692.00
2023-05-04T03:31:08.202Z,702.00
2023-05-04T03:32:08.364Z,705.00
2023-05-04T03:33:08.434Z,701.00
2023-05-04T03:34:08.569Z,707.00
2023-05-04T03:35:08.671Z,716.00
2023-05-04T03:36:08.790Z,715.00
2023-05-04T03:37:08.916Z,724.00
2023-05-04T03:38:09.007Z,728.00
2023-05-04T03:39:09.144Z,726.00
2023-05-04T03:40:09.255Z,731.00
2023-05-04T03:41:09.338Z,728.00
2023-05-04T03:42:09.494Z,724.00
2023-05-04T03:43:10.507Z,714.00
2023-05-04T03:44:09.708Z,705.00
2023-05-04T03:45:09.799Z,708.00
2023-05-04T03:46:09.989Z,703.00
2023-05-04T03:47:10.057Z,707.00
2023-05-04T03:48:10.177Z,696.00
2023-05-04T03:49:10.264Z,701.00
2023-05-04T03:50:10.383Z,695.00
2023-05-04T03:51:10.486Z,686.00
2023-05-04T03:52:10.633Z,682.00
2023-05-04T03:53:10.702Z,673.00
2023-05-04T03:54:10.821Z,668.00
2023-05-04T03:55:10.941Z,666.00
2023-05-04T03:56:11.070Z,669.00
2023-05-04T03:57:11.227Z,680.00
2023-05-04T03:58:11.293Z,683.00
2023-05-04T03:59:11.420Z,711.00
2023-05-04T04:00:11.534Z,722.00
2023-05-04T04:01:11.638Z,734.00
2023-05-04T04:02:11.742Z,755.00
2023-05-04T04:03:12.103Z,758.00
2023-05-04T04:04:12.031Z,782.00
2023-05-04T04:05:12.108Z,783.00
2023-05-04T04:06:12.219Z,785.00
2023-05-04T04:07:12.336Z,789.00
2023-05-04T04:08:12.426Z,793.00
2023-05-04T04:09:12.530Z,800.00
2023-05-04T04:10:12.669Z,804.00
2023-05-04T04:11:12.776Z,795.00
2023-05-04T04:12:12.911Z,788.00
2023-05-04T04:13:13.142Z,786.00
2023-05-04T04:14:13.157Z,806.00
2023-05-04T04:15:13.225Z,797.00
2023-05-04T04:16:13.431Z,786.00
2023-05-04T04:17:13.472Z,792.00
2023-05-04T04:18:13.630Z,787.00
2023-05-04T04:19:13.724Z,795.00
2023-05-04T04:20:13.852Z,793.00
2023-05-04T04:21:13.975Z,805.00
2023-05-04T04:22:14.072Z,808.00
2023-05-04T04:23:14.174Z,814.00
2023-05-04T04:24:14.298Z,823.00
2023-05-04T04:25:14.390Z,825.00
2023-05-04T04:26:14.495Z,830.00
2023-05-04T04:27:14.596Z,834.00
2023-05-04T04:28:14.667Z,844.00
2023-05-04T04:29:14.774Z,843.00
2023-05-04T04:30:14.867Z,831.00
2023-05-04T04:31:14.958Z,831.00
2023-05-04T04:32:15.036Z,820.00
2023-05-04T04:33:15.259Z,824.00
2023-05-04T04:34:15.189Z,835.00
2023-05-04T04:35:15.291Z,831.00
2023-05-04T04:36:15.359Z,811.00
2023-05-04T04:37:15.457Z,790.00
2023-05-04T04:38:15.561Z,789.00
2023-05-04T04:39:15.701Z,783.00
2023-05-04T04:40:15.753Z,773.00
2023-05-04T04:41:15.865Z,765.00
2023-05-04T04:42:15.958Z,782.00
2023-05-04T04:43:16.024Z,795.00
2023-05-04T04:44:16.123Z,801.00
2023-05-04T04:45:16.238Z,797.00
2023-05-04T04:46:16.462Z,795.00
2023-05-04T04:47:16.517Z,792.00
2023-05-04T04:48:16.585Z,791.00
2023-05-04T04:49:16.649Z,795.00
2023-05-04T04:50:16.764Z,799.00
2023-05-04T04:51:16.849Z,807.00
2023-05-04T04:52:16.974Z,802.00
2023-05-04T04:53:18.032Z,801.00
2023-05-04T04:54:17.136Z,809.00
2023-05-04T04:55:17.207Z,807.00
2023-05-04T04:56:17.343Z,813.00
2023-05-04T04:57:17.445Z,814.00
2023-05-04T04:58:17.526Z,797.00
2023-05-04T04:59:17.670Z,801.00
2023-05-04T05:00:17.718Z,806.00
2023-05-04T05:01:18.063Z,811.00
2023-05-04T05:02:17.943Z,815.00
2023-05-04T05:03:18.108Z,816.00
2023-05-04T05:04:18.143Z,816.00
2023-05-04T05:05:18.232Z,821.00
2023-05-04T05:06:18.344Z,809.00
2023-05-04T05:07:18.418Z,816.00
2023-05-04T05:08:18.501Z,810.00
2023-05-04T05:09:18.611Z,799.00
2023-05-04T05:10:18.705Z,796.00
2023-05-04T05:11:18.784Z,805.00
2023-05-04T05:12:18.896Z,812.00
2023-05-04T05:13:18.985Z,794.00
2023-05-04T05:14:19.096Z,786.00
2023-05-04T05:15:19.181Z,766.00
2023-05-04T05:16:19.295Z,754.00
2023-05-04T05:17:19.340Z,755.00
2023-05-04T05:18:19.456Z,763.00
2023-05-04T05:19:19.526Z,751.00
2023-05-04T05:20:19.587Z,748.00
2023-05-04T05:21:19.660Z,752.00
2023-05-04T05:22:19.735Z,750.00
2023-05-04T05:23:19.749Z,745.00
2023-05-04T05:24:19.846Z,749.00
2023-05-04T05:25:19.926Z,750.00
2023-05-04T05:26:20.034Z,723.00
2023-05-04T05:27:20.102Z,731.00
2023-05-04T05:28:20.215Z,743.00
2023-05-04T05:29:20.320Z,758.00
2023-05-04T05:30:20.425Z,736.00
2023-05-04T05:31:20.601Z,750.00
2023-05-04T05:32:20.655Z,762.00
2023-05-04T05:33:20.753Z,772.00
2023-05-04T05:34:20.824Z,760.00
2023-05-04T05:35:20.953Z,727.00
2023-05-04T05:36:21.018Z,720.00
2023-05-04T05:37:21.064Z,725.00
2023-05-04T05:38:21.162Z,800.00
2023-05-04T05:39:21.230Z,854.00
2023-05-04T05:40:21.333Z,934.00
2023-05-04T05:41:21.488Z,926.00
2023-05-04T05:42:22.059Z,943.00
2023-05-04T05:43:21.690Z,981.00
2023-05-04T05:44:21.788Z,1013.00
2023-05-04T05:45:21.933Z,1063.00
2023-05-04T05:46:22.109Z,974.00
2023-05-04T05:47:22.229Z,950.00
2023-05-04T05:48:22.308Z,1012.00
2023-05-04T05:49:22.422Z,1132.00
2023-05-04T05:50:22.520Z,1137.00
2023-05-04T05:51:22.645Z,1165.00
2023-05-04T05:52:22.772Z,1208.00
2023-05-04T05:53:22.871Z,1234.00
2023-05-04T05:54:22.958Z,1247.00
2023-05-04T05:55:23.091Z,1223.00
2023-05-04T05:56:23.178Z,1196.00
2023-05-04T05:57:23.551Z,1318.00
2023-05-04T05:58:23.337Z,1454.00
2023-05-04T05:59:23.466Z,1493.00
2023-05-04T06:00:23.563Z,1545.00
2023-05-04T06:01:24.214Z,1631.00
2023-05-04T06:02:23.812Z,1667.00
2023-05-04T06:03:23.988Z,1679.00
2023-05-04T06:04:23.935Z,1698.00
2023-05-04T06:05:23.948Z,1729.00
2023-05-04T06:06:24.041Z,1786.00
2023-05-04T06:07:24.115Z,1799.00
2023-05-04T06:08:24.191Z,1803.00
2023-05-04T06:09:24.269Z,1824.00
2023-05-04T06:10:24.297Z,1844.00
2023-05-04T06:11:24.389Z,1854.00
2023-05-04T06:12:24.457Z,1871.00
2023-05-04T06:13:24.473Z,1897.00
2023-05-04T06:14:24.547Z,1878.00
2023-05-04T06:15:24.620Z,1872.00
2023-05-04T06:16:24.747Z,1938.00
2023-05-04T06:17:24.750Z,1951.00
2023-05-04T06:18:24.777Z,1964.00
2023-05-04T06:19:24.828Z,1990.00
2023-05-04T06:20:24.870Z,2001.00
2023-05-04T06:21:25.017Z,2027.00
2023-05-04T06:22:25.014Z,2039.00
2023-05-04T06:23:25.076Z,2105.00
2023-05-04T06:24:25.094Z,2138.00
2023-05-04T06:25:25.155Z,2154.00
2023-05-04T06:26:25.173Z,2161.00
2023-05-04T06:27:25.275Z,2178.00
2023-05-04T06:28:25.293Z,2176.00
2023-05-04T06:29:25.351Z,2206.00
2023-05-04T06:30:25.376Z,2221.00
2023-05-04T06:31:25.530Z,2222.00
2023-05-04T06:32:25.540Z,2202.00
2023-05-04T06:33:25.581Z,2244.00
2023-05-04T06:34:25.643Z,2271.00
2023-05-04T06:35:25.771Z,2260.00
2023-05-04T06:36:25.832Z,2244.00
2023-05-04T06:37:25.915Z,2241.00
2023-05-04T06:38:25.997Z,2264.00
2023-05-04T06:39:26.065Z,2265.00
2023-05-04T06:40:26.159Z,2266.00
2023-05-04T06:41:26.196Z,2277.00
2023-05-04T06:42:26.292Z,2283.00
2023-05-04T06:43:26.356Z,2290.00
2023-05-04T06:44:26.409Z,2287.00
2023-05-04T06:45:26.532Z,2329.00
2023-05-04T06:46:26.642Z,2112.00
2023-05-04T06:47:26.721Z,2104.00
2023-05-04T06:48:26.757Z,2099.00
2023-05-04T06:49:26.826Z,2148.00
2023-05-04T06:50:26.957Z,2281.00
2023-05-04T06:51:27.023Z,2364.00
2023-05-04T06:52:27.124Z,2415.00
2023-05-04T06:53:27.204Z,2379.00
2023-05-04T06:54:27.268Z,2378.00
2023-05-04T06:55:27.356Z,2400.00
2023-05-04T06:56:27.429Z,2380.00
2023-05-04T06:57:27.510Z,2417.00
2023-05-04T06:58:27.580Z,2420.00
2023-05-04T06:59:27.667Z,2431.00
2023-05-04T07:00:27.801Z,2459.00
2023-05-04T07:01:27.896Z,2488.00
2023-05-04T07:02:28.018Z,2476.00
2023-05-04T07:03:28.097Z,2475.00
2023-05-04T07:04:28.201Z,2460.00
2023-05-04T07:05:28.266Z,2455.00
2023-05-04T07:06:28.380Z,2476.00
2023-05-04T07:07:28.525Z,2465.00
2023-05-04T07:08:28.622Z,2468.00
2023-05-04T07:09:28.721Z,2477.00
2023-05-04T07:10:28.815Z,2484.00
2023-05-04T07:11:28.948Z,2482.00
2023-05-04T07:12:29.103Z,2485.00
2023-05-04T07:13:29.149Z,2489.00
2023-05-04T07:14:29.243Z,2480.00
2023-05-04T07:15:29.315Z,2492.00
2023-05-04T07:16:29.471Z,2480.00
2023-05-04T07:17:29.524Z,2475.00
2023-05-04T07:18:29.608Z,2424.00
2023-05-04T07:19:29.710Z,2402.00
2023-05-04T07:20:29.845Z,2452.00
2023-05-04T07:21:29.967Z,2451.00
2023-05-04T07:22:30.056Z,2464.00
2023-05-04T07:23:30.149Z,2464.00
2023-05-04T07:24:30.260Z,2434.00
2023-05-04T07:25:30.370Z,2444.00
2023-05-04T07:26:30.440Z,2445.00
2023-05-04T07:27:30.584Z,2389.00
2023-05-04T07:28:30.691Z,2388.00
2023-05-04T07:29:30.757Z,2370.00
2023-05-04T07:30:30.839Z,2375.00
2023-05-04T07:31:31.045Z,2320.00
2023-05-04T07:32:31.038Z,2304.00
2023-05-04T07:33:31.146Z,2319.00
2023-05-04T07:34:44.616Z,2318.00
2023-05-04T07:35:32.287Z,2319.00
2023-05-04T07:36:31.302Z,2316.00
2023-05-04T07:37:31.589Z,2287.00
2023-05-04T07:38:31.378Z,2161.00
2023-05-04T07:39:31.425Z,2226.00
2023-05-04T07:40:31.463Z,2211.00
2023-05-04T07:41:31.477Z,2059.00
2023-05-04T07:42:31.590Z,1901.00
2023-05-04T07:43:31.555Z,1767.00
2023-05-04T07:44:31.671Z,1647.00
2023-05-04T07:45:31.705Z,1362.00
2023-05-04T07:46:31.835Z,1336.00
2023-05-04T07:47:32.183Z,1544.00
2023-05-04T07:48:31.919Z,1593.00
2023-05-04T07:49:32.027Z,1582.00
2023-05-04T07:50:32.059Z,1272.00
2023-05-04T07:51:32.154Z,1374.00
2023-05-04T07:52:32.275Z,1426.00
2023-05-04T07:53:32.352Z,1521.00
2023-05-04T07:54:32.432Z,1546.00
2023-05-04T07:55:32.527Z,1587.00
2023-05-04T07:56:32.628Z,1578.00
2023-05-04T07:57:32.683Z,1504.00
2023-05-04T07:58:32.714Z,1550.00
2023-05-04T07:59:32.823Z,1523.00
2023-05-04T08:00:32.886Z,1505.00
2023-05-04T08:01:33.026Z,1450.00
2023-05-04T08:02:33.146Z,1389.00
2023-05-04T08:03:33.127Z,1342.00
2023-05-04T08:04:33.225Z,1271.00
2023-05-04T08:05:33.310Z,1252.00
2023-05-04T08:06:33.391Z,1070.00
2023-05-04T08:07:33.457Z,1051.00
2023-05-04T08:08:33.552Z,1094.00
2023-05-04T08:09:33.587Z,1147.00
2023-05-04T08:10:33.693Z,1129.00
2023-05-04T08:11:33.735Z,1142.00
2023-05-04T08:12:33.857Z,1129.00
2023-05-04T08:13:33.894Z,1071.00
2023-05-04T08:14:34.137Z,1051.00
2023-05-04T08:15:34.010Z,1023.00
2023-05-04T08:16:34.127Z,1014.00
2023-05-04T08:17:34.216Z,982.00
2023-05-04T08:18:34.236Z,973.00
2023-05-04T08:19:34.295Z,993.00
2023-05-04T08:20:34.428Z,982.00
2023-05-04T08:21:34.454Z,1007.00
2023-05-04T08:22:34.546Z,1009.00
2023-05-04T08:23:34.599Z,1015.00
2023-05-04T08:24:34.680Z,1016.00
2023-05-04T08:25:34.770Z,992.00
2023-05-04T08:26:34.856Z,998.00
2023-05-04T08:27:34.936Z,986.00
2023-05-04T08:28:35.011Z,987.00
2023-05-04T08:29:35.097Z,905.00
2023-05-04T08:30:35.151Z,932.00
2023-05-04T08:31:35.316Z,876.00
2023-05-04T08:32:35.385Z,851.00
2023-05-04T08:33:35.401Z,801.00
2023-05-04T08:34:35.445Z,575.00
2023-05-04T08:35:35.563Z,607.00
2023-05-04T08:36:35.678Z,610.00
2023-05-04T08:37:35.723Z,698.00
2023-05-04T08:38:35.787Z,653.00
2023-05-04T08:39:35.905Z,823.00
2023-05-04T08:40:35.953Z,924.00
2023-05-04T08:41:36.041Z,932.00
2023-05-04T08:42:36.139Z,1011.00
2023-05-04T08:43:36.239Z,1139.00
2023-05-04T08:44:36.227Z,1074.00
2023-05-04T08:45:36.333Z,892.00
2023-05-04T08:46:36.370Z,780.00
2023-05-04T08:47:36.675Z,928.00
2023-05-04T08:48:36.496Z,1200.00
2023-05-04T08:49:36.604Z,1201.00
2023-05-04T08:50:36.654Z,1226.00
2023-05-04T08:51:36.777Z,1240.00
2023-05-04T08:52:36.832Z,821.00
2023-05-04T08:53:36.851Z,930.00
2023-05-04T08:54:36.934Z,964.00
2023-05-04T08:55:37.026Z,1070.00
2023-05-04T08:56:37.049Z,999.00
2023-05-04T08:57:37.171Z,1124.00
2023-05-04T08:58:37.238Z,1310.00
2023-05-04T08:59:37.309Z,1330.00
2023-05-04T09:00:37.415Z,1302.00
2023-05-04T09:01:37.440Z,1418.00
2023-05-04T09:02:37.693Z,1471.00
2023-05-04T09:03:37.753Z,1534.00
2023-05-04T09:04:37.756Z,1543.00
2023-05-04T09:05:37.739Z,1560.00
2023-05-04T09:06:37.838Z,1607.00
2023-05-04T09:07:37.958Z,1640.00
2023-05-04T09:08:38.007Z,1687.00
2023-05-04T09:09:38.121Z,1614.00
2023-05-04T09:10:38.264Z,1678.00
2023-05-04T09:11:38.302Z,1677.00
2023-05-04T09:12:38.441Z,1604.00
2023-05-04T09:13:38.441Z,1617.00
2023-05-04T09:14:38.535Z,1678.00
2023-05-04T09:15:38.651Z,1729.00
2023-05-04T09:16:38.756Z,1784.00
2023-05-04T09:17:50.946Z,1804.00
2023-05-04T09:18:39.801Z,1806.00
2023-05-04T09:19:38.807Z,1814.00
2023-05-04T09:20:38.834Z,1822.00
2023-05-04T09:21:38.881Z,1869.00
2023-05-04T09:22:38.928Z,1896.00
2023-05-04T09:23:38.980Z,1919.00
2023-05-04T09:24:38.931Z,1886.00
2023-05-04T09:25:38.944Z,1903.00
2023-05-04T09:26:38.984Z,1925.00
2023-05-04T09:27:39.012Z,1939.00
2023-05-04T09:28:39.048Z,1978.00
2023-05-04T09:29:39.051Z,2004.00
2023-05-04T09:30:39.097Z,1995.00
2023-05-04T09:31:39.243Z,2042.00
2023-05-04T09:32:39.149Z,2055.00
2023-05-04T09:33:39.152Z,2079.00
2023-05-04T09:34:39.168Z,2101.00
2023-05-04T09:35:39.248Z,2130.00
2023-05-04T09:36:39.292Z,2163.00
2023-05-04T09:37:39.674Z,2193.00
2023-05-04T09:38:39.309Z,2241.00
2023-05-04T09:39:39.362Z,2251.00
2023-05-04T09:40:39.483Z,2271.00
2023-05-04T09:41:39.453Z,2286.00
2023-05-04T09:42:39.493Z,2253.00
2023-05-04T09:43:39.649Z,2021.00
2023-05-04T09:44:39.570Z,1880.00
2023-05-04T09:45:39.610Z,1808.00
2023-05-04T09:46:39.695Z,1859.00
2023-05-04T09:47:39.769Z,1959.00
2023-05-04T09:48:40.160Z,1980.00
2023-05-04T09:49:39.840Z,2045.00
2023-05-04T09:50:39.895Z,2060.00
2023-05-04T09:51:39.957Z,2053.00
2023-05-04T09:52:40.061Z,2053.00
2023-05-04T09:53:40.116Z,2056.00
2023-05-04T09:54:40.187Z,1986.00
2023-05-04T09:55:40.268Z,2003.00
2023-05-04T09:56:40.340Z,1895.00
2023-05-04T09:57:40.423Z,1690.00
2023-05-04T09:58:40.490Z,1693.00
2023-05-04T09:59:40.582Z,1661.00
2023-05-04T10:00:40.672Z,1595.00
2023-05-04T10:01:42.249Z,1592.00
2023-05-04T10:02:40.871Z,1550.00
2023-05-04T10:03:40.813Z,1517.00
2023-05-04T10:04:40.788Z,1535.00
2023-05-04T10:05:40.880Z,1410.00
2023-05-04T10:06:40.840Z,1383.00
2023-05-04T10:07:41.638Z,1320.00
2023-05-04T10:08:40.895Z,1326.00
2023-05-04T10:09:40.936Z,1334.00
2023-05-04T10:10:40.939Z,1339.00
2023-05-04T10:11:40.991Z,1460.00
2023-05-04T10:12:41.042Z,1483.00
2023-05-04T10:13:41.042Z,1469.00
2023-05-04T10:14:41.098Z,1441.00
2023-05-04T10:15:41.128Z,1449.00
2023-05-04T10:16:41.107Z,1399.00
2023-05-04T10:17:41.224Z,1384.00
2023-05-04T10:18:41.170Z,1337.00
2023-05-04T10:19:41.171Z,1328.00
2023-05-04T10:20:41.224Z,1340.00
2023-05-04T10:21:41.284Z,1381.00
2023-05-04T10:22:41.286Z,1453.00
2023-05-04T10:23:41.324Z,1438.00
2023-05-04T10:24:41.325Z,1477.00
2023-05-04T10:25:41.367Z,1511.00
2023-05-04T10:26:41.409Z,1547.00
2023-05-04T10:27:41.456Z,1601.00
2023-05-04T10:28:41.466Z,1667.00
2023-05-04T10:29:41.476Z,1694.00
2023-05-04T10:30:41.484Z,1704.00
2023-05-04T10:31:41.604Z,1717.00
2023-05-04T10:32:41.598Z,1699.00
2023-05-04T10:33:41.613Z,1687.00
2023-05-04T10:34:41.588Z,1696.00
2023-05-04T10:35:41.643Z,1715.00
2023-05-04T10:36:41.680Z,1737.00
2023-05-04T10:37:41.701Z,1714.00
2023-05-04T10:38:41.728Z,1713.00
2023-05-04T10:39:41.742Z,1720.00
2023-05-04T10:40:41.938Z,1775.00
2023-05-04T10:41:41.848Z,1797.00
2023-05-04T10:42:41.844Z,1843.00
2023-05-04T10:43:41.862Z,1777.00
2023-05-04T10:44:41.955Z,1774.00
2023-05-04T10:45:42.091Z,1656.00
2023-05-04T10:46:42.066Z,1604.00
2023-05-04T10:47:42.136Z,1630.00
2023-05-04T10:48:42.181Z,1692.00
2023-05-04T10:49:42.272Z,1700.00
2023-05-04T10:50:42.352Z,1704.00
2023-05-04T10:51:48.951Z,1712.00
2023-05-04T10:52:43.444Z,1714.00
2023-05-04T10:53:42.449Z,1723.00
2023-05-04T10:54:42.511Z,1754.00
2023-05-04T10:55:42.486Z,1791.00
2023-05-04T10:56:42.609Z,1825.00
2023-05-04T10:57:42.544Z,1740.00
2023-05-04T10:58:42.613Z,1773.00
2023-05-04T10:59:42.637Z,1724.00
2023-05-04T11:00:42.683Z,1659.00
2023-05-04T11:01:42.732Z,1651.00
2023-05-04T11:02:42.826Z,1714.00
2023-05-04T11:03:42.818Z,1722.00
2023-05-04T11:04:42.749Z,1708.00
2023-05-04T11:05:42.754Z,1702.00
2023-05-04T11:06:42.823Z,1716.00
2023-05-04T11:07:42.845Z,1722.00
2023-05-04T11:08:43.196Z,1723.00
2023-05-04T11:09:42.868Z,1731.00
2023-05-04T11:10:42.871Z,1733.00
2023-05-04T11:11:42.913Z,1745.00
2023-05-04T11:12:43.088Z,1753.00
2023-05-04T11:13:43.032Z,1757.00
2023-05-04T11:14:43.488Z,1749.00
2023-05-04T11:15:43.142Z,1731.00
2023-05-04T11:16:43.244Z,1733.00
2023-05-04T11:17:43.313Z,1731.00
2023-05-04T11:18:43.301Z,1713.00
2023-05-04T11:19:43.407Z,1716.00
2023-05-04T11:20:43.425Z,1681.00
2023-05-04T11:21:43.516Z,1705.00
2023-05-04T11:22:43.548Z,1694.00
2023-05-04T11:23:43.600Z,1714.00
2023-05-04T11:24:44.199Z,1725.00
2023-05-04T11:25:43.698Z,1711.00
2023-05-04T11:26:43.776Z,1720.00
2023-05-04T11:27:43.812Z,1720.00
2023-05-04T11:28:44.213Z,1726.00
2023-05-04T11:29:43.947Z,1727.00
2023-05-04T11:30:43.964Z,1747.00
2023-05-04T11:31:44.084Z,1749.00
2023-05-04T11:32:44.171Z,1746.00
2023-05-04T11:33:44.176Z,1735.00
2023-05-04T11:34:44.177Z,1747.00
2023-05-04T11:35:44.205Z,1736.00
2023-05-04T11:36:44.294Z,1751.00
2023-05-04T11:37:44.324Z,1754.00
2023-05-04T11:38:44.387Z,1747.00
2023-05-04T11:39:44.406Z,1756.00
2023-05-04T11:40:44.465Z,1742.00
2023-05-04T11:41:44.494Z,1742.00
2023-05-04T11:42:44.549Z,1737.00
2023-05-04T11:43:44.613Z,1697.00
2023-05-04T11:44:44.677Z,1670.00
2023-05-04T11:45:44.686Z,1683.00
2023-05-04T11:46:45.742Z,1691.00
2023-05-04T11:47:44.827Z,1694.00
2023-05-04T11:48:44.807Z,1703.00
2023-05-04T11:49:44.836Z,1701.00
2023-05-04T11:50:44.891Z,1700.00
2023-05-04T11:51:44.927Z,1696.00
2023-05-04T11:52:44.997Z,1707.00
2023-05-04T11:53:45.022Z,1697.00
2023-05-04T11:54:45.067Z,1720.00
2023-05-04T11:55:45.095Z,1712.00
2023-05-04T11:56:45.114Z,1702.00
2023-05-04T11:57:45.201Z,1706.00
2023-05-04T11:58:45.225Z,1682.00
2023-05-04T11:59:45.248Z,1695.00
2023-05-04T12:00:45.407Z,1707.00
2023-05-04T12:01:45.363Z,1715.00
2023-05-04T12:02:45.408Z,1715.00
2023-05-04T12:03:53.891Z,1682.00
2023-05-04T12:04:46.425Z,1683.00
2023-05-04T12:05:46.261Z,1687.00
2023-05-04T12:06:45.475Z,1680.00
2023-05-04T12:07:45.489Z,1641.00
2023-05-04T12:08:45.551Z,1637.00
2023-05-04T12:09:45.495Z,1637.00
2023-05-04T12:10:45.527Z,1655.00
2023-05-04T12:11:45.569Z,1678.00
2023-05-04T12:12:45.615Z,1700.00
2023-05-04T12:13:45.735Z,1702.00
2023-05-04T12:14:45.647Z,1710.00
2023-05-04T12:15:45.621Z,1701.00
2023-05-04T12:16:45.726Z,1749.00
2023-05-04T12:17:45.681Z,1784.00
2023-05-04T12:18:45.697Z,1803.00